x

Buoy B01 - Western Maine Shelf (44030) Wave Buoy

5:04 - Thu 2nd Oct 2014 All times are EDT. -4 hours from GMT.

  • Sig Wave height 8.2ft
  • Peak Period 8s
  • Wind
    22mph, 27mph gusts
  • Sea Temp 59°f
  • Ar Temp 56°f
  • Sea Pressure 1019.5mb
  • Buoy B01 - Western Maine Shelf
  • Buoy B01 - Western Maine Shelf

More Historic Weather Station data

Upgrade to MSW Pro to gain access to the past 30 days of data for over 8000 Wavebouys and Weather Stations around the globe.

Join Pro

Comparision Forecast

View Surf forecast
   
Qui 10/02 5:04 8ft 8s 22 27 mph 1019.5mb 59f 56f
4:04 7ft 8s 20 25 mph 1019.5mb 59f 56f
3:04 6ft 8s 20 22 mph 1019.2mb 59f 57f
2:04 6ft 6s 22 27 mph 1018.5mb 59f 57f
1:04 6ft 6s 20 25 mph 1019.1mb 59f 58f
12:04 5.5ft 6s 22 27 mph 1019.4mb 59f 58f
Qua 10/01 11:04 5ft 6s 20 22 mph 1019.4mb 59f 58f
10:04 4.5ft 6s 18 20 mph 1019.5mb 59f 58f
9:04 5ft 6s 18 20 mph 1019.3mb 59f 58f
3:04 5ft 5s 18 20 mph 1017.7mb 59f 58f
2:04 4.5ft 5s 16 20 mph 1018.1mb 59f 57f
1:04 4.5ft 5s 20 22 mph 1018.1mb 59f 57f
12:04 4.5ft 5s 20 25 mph 1018.1mb 59f 56f
11:04 4.5ft 5s 20 25 mph 1018.3mb 59f 56f
10:04 4ft 5s 20 25 mph 1018.3mb 59f 57f
9:04 3.5ft 4s 20 22 mph 1017.9mb 59f 57f
8:04 3.5ft 4s 20 22 mph 1017.3mb 59f 57f
7:04 3.5ft 5s 18 22 mph 1016.8mb 59f 57f
6:04 3.5ft 4s 16 20 mph 1016.4mb 59f 57f
5:04 3.5ft 4s 18 20 mph 1015.9mb 59f 58f
4:04 3.5ft 5s 18 20 mph 1015.6mb 59f 58f
3:04 3ft 5s 18 20 mph 1015.8mb 59f 58f
2:04 3.5ft 5s 16 20 mph 1016.4mb 59f 58f
1:04 3.5ft 5s 16 20 mph 1016.5mb 59f 58f
12:04 2.5ft 6s 16 20 mph 1016.4mb 60f 58f
Ter 09/30 11:04 2.5ft 5s 13 16 mph 1016.4mb 60f 58f
10:04 2.5ft 5s 11
mph
1016.6mb 60f 57f
9:04 3ft 6s 9 11 mph 1016.4mb 60f 57f
8:04 2.5ft 6s 11
mph
1016.1mb 60f 57f
6:04 3.5ft 6s 11 13 mph 1015.3mb 60f 57f
5:04 3.5ft 6s 13 16 mph 1015.1mb 60f 57f
4:04 3.5ft 6s 9 11 mph 1015.4mb 60f 56f
3:04 4ft 6s 11 13 mph 1015.5mb 60f 56f
2:04 4ft 6s 13 16 mph 1015.5mb 59f 56f
1:04 4ft 6s 13 16 mph 1016mb 60f 55f
12:04 4ft 6s 16 18 mph 1016mb 60f 55f
11:04 4.5ft 6s 13 16 mph 1016.4mb 60f 55f
10:04 4.5ft 6s 16 20 mph 1016.7mb 60f 55f
9:04 5ft 8s 16 20 mph 1016.5mb 60f 55f
8:04 5.5ft 6s 18 20 mph 1016.3mb 60f 55f
7:04 6ft 8s 16 18 mph 1016.2mb 60f 56f
6:04 5.5ft 6s 20 22 mph 1015.1mb 60f 55f
5:04 6.5ft 8s 18 20 mph 1015.2mb 60f 55f
4:04 7ft 6s 18 22 mph 1015.1mb 60f 56f
3:04 7ft 8s 22 25 mph 1015mb 60f 55f
2:04 8ft 8s 22 25 mph 1015.4mb 60f 56f
1:04 8.5ft 8s 22 25 mph 1015.3mb 60f 56f
12:04 10ft 8s 20 25 mph 1015.7mb 60f 56f
Seg 09/29 11:04 8ft 6s 22 27 mph 1015.5mb 60f 56f
10:04 9ft 8s 22 29 mph 1016.2mb 60f 56f
9:04 9ft 8s 22 29 mph 1016.2mb 60f 56f
8:04 8.5ft 8s 25 29 mph 1015.9mb 60f 56f
7:04 7ft 6s 25 29 mph 1015.7mb 61f 57f
6:04 7ft 6s 22 27 mph 1015.5mb 61f 57f
5:04 6ft 6s 20 25 mph 1015.3mb 61f 58f
4:04 5ft 5s 22 25 mph 1014.8mb 61f 58f
3:04 4ft 4s 22 27 mph 1014.6mb 61f 58f
2:04 2.5ft 3s 22 27 mph 1014mb 61f 60f
1:04 1.6ft 8s 11 13 mph 1014.2mb 61f 63f
12:04 1.6ft 8s 13
mph
1013.7mb 61f 63f
11:04 1.6ft 8s 9 11 mph 1014mb 62f 63f
10:04 1.6ft 8s 4 7 mph 1014.3mb 62f 63f
9:04 1.3ft 8s 7 9 mph 1013.8mb 62f 62f
8:04 1.6ft 4s 7
mph
1013.5mb 62f 62f
7:04 1.3ft 4s 4
mph
1013.4mb 62f 62f
6:04 2ft 5s 7 9 mph 1013mb 62f 62f
5:04 1.6ft 5s 2 4 mph 1012.6mb 62f 62f
4:04 1.6ft 5s 2
mph
1012.4mb 62f 62f
3:04 1.6ft 4s 4
mph
1012.1mb 62f 62f
2:04 1.6ft 8s 2
mph
1012.6mb 62f 63f
1:04 1.6ft 8s 4
mph
1012.6mb 62f 63f
12:04 1.6ft 8s 7
mph
1012.6mb 62f 64f
Dom 09/28 11:04 1.3ft 8s 7
mph
1013.1mb 62f 64f
10:04 1.3ft 8s 9
mph
1013.3mb 62f 64f
9:04 1ft 3s 7
mph
1013.7mb 62f 64f
7:04 1.6ft 8s 11
mph
1013.7mb 62f 64f
6:04 2ft 8s 11 13 mph 1013.8mb 62f 65f
5:04 1ft 3s 13 16 mph 1013.7mb 61f 65f
4:04 1.6ft 8s 11 13 mph 1014.2mb 62f 64f
3:04 1ft 3s 11
mph
1014.8mb 61f 64f
2:04 1.6ft 8s 11 13 mph 1015.3mb 62f 64f
1:04 1.3ft 6s 11
mph
1016.1mb 62f 64f
12:04 1.6ft 8s 9
mph
1017mb 62f 63f
11:04 1.6ft 8s 9
mph
1017.8mb 61f 62f